Time;durP1;ratioP1;P1;durP2;ratioP2;P2;SDS_P1;SDS_P2;PMS_P1;PMS_P2;Temp;Humidity;BMP_temperature;BMP_pressure;BME280_temperature;BME280_humidity;BME280_pressure;Samples;Min_cycle;Max_cycle;Signal;HPM_P1;HPM_P2
2023/10/04 00:04:12;;;;;;;4.13;1.10;;;;;;;20.81;48.55;102494.66;16125318;19;129493;-55
2023/10/04 00:09:34;;;;;;;3.63;1.05;;;;;;;20.80;48.52;102492.94;16125589;19;129583;-55
2023/10/04 00:14:57;;;;;;;1.58;0.60;;;;;;;20.80;48.40;102512.41;16126186;19;130436;-56
2023/10/04 00:20:19;;;;;;;1.88;0.85;;;;;;;20.79;48.49;102524.66;16126548;19;129653;-54
2023/10/04 00:25:42;;;;;;;3.10;1.00;;;;;;;20.78;48.22;102517.38;16115876;19;130354;-56
2023/10/04 00:31:05;;;;;;;4.35;1.05;;;;;;;20.78;48.49;102516.50;16119327;19;130032;-56
2023/10/04 00:36:28;;;;;;;2.10;1.00;;;;;;;20.77;48.22;102531.47;16119648;19;131462;-52
2023/10/04 00:41:53;;;;;;;2.97;1.02;;;;;;;20.76;48.51;102530.66;16115414;19;130182;-54
2023/10/04 00:47:16;;;;;;;4.27;0.87;;;;;;;20.75;48.70;102531.69;16120230;19;130132;-52
2023/10/04 00:52:38;;;;;;;4.60;0.80;;;;;;;20.74;48.31;102535.53;16117649;19;129195;-68
2023/10/04 00:58:05;;;;;;;1.40;0.60;;;;;;;20.74;48.35;102543.88;16122815;19;129774;-63
2023/10/04 01:03:30;;;;;;;1.60;0.60;;;;;;;20.73;48.54;102548.59;16111593;19;129625;-55
2023/10/04 01:08:55;;;;;;;1.87;0.80;;;;;;;20.72;48.54;102549.69;16121401;19;129553;-57
2023/10/04 01:14:25;;;;;;;1.33;0.63;;;;;;;20.71;48.27;102547.09;16117424;19;130628;-57
2023/10/04 01:19:47;;;;;;;1.27;0.85;;;;;;;20.71;48.42;102541.53;16116524;19;130587;-56
2023/10/04 01:25:12;;;;;;;1.77;0.80;;;;;;;20.70;48.27;102543.47;16116328;19;129705;-57
2023/10/04 01:30:35;;;;;;;2.15;0.63;;;;;;;20.69;48.45;102540.91;16117997;19;135329;-55
2023/10/04 01:35:57;;;;;;;1.20;0.60;;;;;;;20.68;48.71;102553.97;16115610;19;130502;-58
2023/10/04 01:41:19;;;;;;;1.33;0.60;;;;;;;20.68;48.26;102553.09;16113984;19;129971;-58
2023/10/04 01:46:42;;;;;;;1.95;0.52;;;;;;;20.67;48.67;102560.59;16112438;19;130805;-60
2023/10/04 01:52:05;;;;;;;2.03;0.70;;;;;;;20.67;48.30;102554.19;16117860;19;130256;-61
2023/10/04 01:57:28;;;;;;;1.67;0.70;;;;;;;20.66;48.78;102550.53;16111243;19;130426;-56
2023/10/04 02:02:51;;;;;;;1.75;0.60;;;;;;;20.65;48.81;102545.22;16114072;19;129690;-59
2023/10/04 02:08:15;;;;;;;3.15;0.65;;;;;;;20.65;48.46;102536.88;16112493;19;129968;-60
2023/10/04 02:13:40;;;;;;;1.33;0.50;;;;;;;20.64;48.25;102540.72;16107899;19;130308;-58
2023/10/04 02:19:02;;;;;;;0.80;0.50;;;;;;;20.63;48.80;102537.06;16108333;19;130504;-58
2023/10/04 02:24:24;;;;;;;1.73;0.70;;;;;;;20.63;48.63;102527.91;16112333;19;130784;-58
2023/10/04 02:29:47;;;;;;;1.55;0.70;;;;;;;20.60;48.62;102524.47;16111546;19;129588;-58
2023/10/04 02:35:22;;;;;;;1.35;0.60;;;;;;;20.60;48.53;102518.91;16105500;19;134337;-59
2023/10/04 02:40:46;;;;;;;1.48;0.47;;;;;;;20.59;48.60;102531.09;16110653;19;130108;-57
2023/10/04 02:46:10;;;;;;;1.20;0.75;;;;;;;20.57;48.57;102549.94;16107709;19;130762;-56
2023/10/04 02:51:32;;;;;;;1.48;0.60;;;;;;;20.58;48.32;102557.19;16110410;19;131498;-58
2023/10/04 02:56:56;;;;;;;1.30;0.50;;;;;;;20.59;48.31;102566.41;16108823;19;131138;-58
2023/10/04 03:02:17;;;;;;;1.63;0.60;;;;;;;20.59;48.73;102570.03;16106578;19;129549;-55
2023/10/04 03:07:41;;;;;;;2.20;0.60;;;;;;;20.58;48.54;102585.00;16106527;19;130297;-58
2023/10/04 03:13:11;;;;;;;2.25;0.70;;;;;;;20.56;48.83;102567.69;16107154;19;130723;-58
2023/10/04 03:18:37;;;;;;;2.55;0.60;;;;;;;20.56;48.78;102575.19;16121176;19;132878;-58
2023/10/04 03:23:59;;;;;;;;;;;;;;;20.52;48.71;102580.34;16123249;19;129692;-58
2023/10/04 03:29:22;;;;;;;1.77;0.68;;;;;;;20.54;48.55;102578.19;16127946;19;129923;-58
2023/10/04 03:34:44;;;;;;;1.55;0.50;;;;;;;20.52;48.59;102574.78;16120519;19;129611;-58
2023/10/04 03:40:14;;;;;;;1.60;0.80;;;;;;;20.52;48.51;102583.13;16120468;19;131644;-58
2023/10/04 03:45:41;;;;;;;0.90;0.52;;;;;;;20.51;48.38;102578.63;16120994;19;131114;-58
2023/10/04 03:51:03;;;;;;;1.75;0.70;;;;;;;20.50;48.63;102562.16;16119328;19;130686;-58
2023/10/04 03:56:29;;;;;;;1.83;0.47;;;;;;;20.50;48.66;102571.38;16123086;19;132801;-58
2023/10/04 04:01:52;;;;;;;1.27;0.55;;;;;;;20.50;48.44;102570.50;16122394;19;130290;-58
2023/10/04 04:07:14;;;;;;;0.88;0.60;;;;;;;20.48;48.62;102573.50;16119880;19;130321;-58
2023/10/04 04:12:37;;;;;;;2.60;0.65;;;;;;;20.48;48.79;102555.97;16120842;19;130409;-54
2023/10/04 04:17:59;;;;;;;0.55;0.30;;;;;;;20.47;48.77;102560.66;16121433;19;129689;-58
2023/10/04 04:23:21;;;;;;;1.20;0.57;;;;;;;20.47;48.81;102555.13;16117253;19;131560;-58
2023/10/04 04:28:44;;;;;;;1.30;0.60;;;;;;;20.47;48.57;102545.94;16118093;19;130491;-57
2023/10/04 04:34:10;;;;;;;3.45;0.60;;;;;;;20.45;48.50;102549.78;16121733;19;129858;-59
2023/10/04 04:39:33;;;;;;;2.78;0.70;;;;;;;20.45;48.50;102543.34;16122632;19;130899;-57
2023/10/04 04:44:56;;;;;;;1.33;0.60;;;;;;;20.43;48.35;102549.16;16116525;19;131282;-58
2023/10/04 04:50:19;;;;;;;1.40;0.60;;;;;;;20.42;48.57;102553.00;16118209;19;131279;-58
2023/10/04 04:55:41;;;;;;;1.00;0.60;;;;;;;20.42;48.54;102564.13;16116220;19;130786;-58
2023/10/04 05:01:08;;;;;;;0.95;0.50;;;;;;;20.42;48.58;102558.56;16117782;19;129816;-57
2023/10/04 05:06:30;;;;;;;1.15;0.55;;;;;;;20.41;48.58;102567.13;16115632;19;130264;-58
2023/10/04 05:11:53;;;;;;;0.88;0.60;;;;;;;20.41;48.81;102590.19;16117448;19;130605;-57
2023/10/04 05:17:16;;;;;;;0.65;0.40;;;;;;;20.40;48.57;102582.09;16121320;19;130234;-57
2023/10/04 05:22:39;;;;;;;1.00;0.43;;;;;;;20.40;48.74;102579.31;16117327;19;131921;-57
2023/10/04 05:28:06;;;;;;;2.33;0.63;;;;;;;20.39;48.52;102586.78;16122351;19;130498;-58
2023/10/04 05:33:28;;;;;;;4.80;0.80;;;;;;;20.38;48.55;102584.22;16118016;19;129922;-58
2023/10/04 05:38:50;;;;;;;1.27;0.70;;;;;;;20.39;48.55;102591.50;16113521;19;129716;-57
2023/10/04 05:44:12;;;;;;;1.05;0.50;;;;;;;20.39;48.27;102591.50;16117555;19;129903;-57
2023/10/04 05:49:34;;;;;;;1.33;0.57;;;;;;;20.37;48.23;102588.06;16117273;19;129584;-58
2023/10/04 05:54:57;;;;;;;1.40;0.55;;;;;;;20.36;48.24;102590.03;16115633;19;129452;-58
2023/10/04 06:00:26;;;;;;;1.42;0.60;;;;;;;20.37;48.27;102596.41;16118139;19;129500;-58
2023/10/04 06:05:51;;;;;;;3.30;0.75;;;;;;;20.36;48.57;102591.94;16116948;19;129245;-57
2023/10/04 06:11:14;;;;;;;2.63;0.77;;;;;;;20.36;48.60;102606.69;16118859;19;130266;-59
2023/10/04 06:16:36;;;;;;;2.15;0.77;;;;;;;20.37;48.19;102613.94;16114823;19;130305;-59
2023/10/04 06:21:58;;;;;;;2.70;0.82;;;;;;;20.38;48.11;102626.75;16114401;19;129694;-59
2023/10/04 06:27:21;;;;;;;2.17;0.57;;;;;;;20.40;48.44;102626.56;16116122;19;131340;-59
2023/10/04 06:32:43;;;;;;;1.98;0.60;;;;;;;20.42;48.43;102638.31;16110583;19;129442;-59
2023/10/04 06:38:07;;;;;;;3.03;0.80;;;;;;;20.45;48.30;102629.53;16112703;19;129119;-59
2023/10/04 06:43:29;;;;;;;3.35;1.00;;;;;;;20.46;48.01;102636.81;16112367;19;133752;-59
2023/10/04 06:48:51;;;;;;;4.22;0.82;;;;;;;20.50;48.04;102654.78;16121505;19;130265;-58
2023/10/04 06:54:13;;;;;;;2.42;0.80;;;;;;;20.52;48.39;102647.06;16129529;19;129794;-57
2023/10/04 06:59:36;;;;;;;1.23;0.50;;;;;;;20.55;48.11;102652.22;16124030;19;129605;-58
2023/10/04 07:04:58;;;;;;;2.03;0.60;;;;;;;20.58;47.99;102662.03;16123355;19;129428;-58
2023/10/04 07:10:21;;;;;;;2.58;0.60;;;;;;;20.60;48.34;102669.06;16126358;19;129381;-58
2023/10/04 07:15:44;;;;;;;2.85;0.70;;;;;;;20.63;47.85;102664.16;16123412;19;129614;-58
2023/10/04 07:21:07;;;;;;;2.85;0.73;;;;;;;20.66;48.26;102663.72;16126496;19;129773;-57
2023/10/04 07:26:34;;;;;;;1.90;0.73;;;;;;;20.69;48.17;102668.81;16126084;19;131822;-57
2023/10/04 07:31:56;;;;;;;2.38;0.80;;;;;;;20.70;47.82;102662.19;16122948;19;129850;-58
2023/10/04 07:37:18;;;;;;;3.22;0.90;;;;;;;20.72;47.74;102662.84;16125194;19;131718;-59
2023/10/04 07:42:42;;;;;;;3.40;0.77;;;;;;;20.75;47.83;102656.84;16125705;19;131456;-56
2023/10/04 07:48:04;;;;;;;3.05;0.82;;;;;;;20.78;47.42;102669.47;16123723;19;130414;-57
2023/10/04 07:53:27;;;;;;;3.83;1.13;;;;;;;20.83;47.23;102675.25;16123184;19;130837;-58
2023/10/04 07:58:49;;;;;;;3.13;0.80;;;;;;;21.02;47.24;102676.25;16121837;19;129705;-58
2023/10/04 08:04:11;;;;;;;2.85;1.02;;;;;;;21.85;45.31;102687.59;16123124;19;131125;-57
2023/10/04 08:09:33;;;;;;;4.57;1.00;;;;;;;23.77;41.98;102692.38;16124652;19;129560;-57
2023/10/04 08:14:58;;;;;;;4.47;1.10;;;;;;;25.11;39.47;102689.13;16123900;19;129775;-57
2023/10/04 08:20:23;;;;;;;3.78;1.50;;;;;;;25.84;37.98;102689.44;16125253;19;129955;-59
2023/10/04 08:25:45;;;;;;;3.25;1.15;;;;;;;26.39;37.03;102692.59;16124195;19;130960;-59
2023/10/04 08:31:13;;;;;;;5.28;1.10;;;;;;;25.77;37.16;102686.78;16122990;19;130192;-59
2023/10/04 08:36:39;;;;;;;6.22;1.38;;;;;;;24.46;39.10;102691.03;16121226;19;129890;-56
2023/10/04 08:42:01;;;;;;;3.65;1.17;;;;;;;23.60;40.55;102704.25;16118645;19;129622;-58
2023/10/04 08:47:24;;;;;;;5.90;1.70;;;;;;;23.00;41.25;102703.06;16121318;19;129801;-57
2023/10/04 08:52:47;;;;;;;4.88;1.30;;;;;;;22.60;41.88;102711.84;16123104;19;129814;-58
2023/10/04 08:58:10;;;;;;;8.07;1.48;;;;;;;22.32;42.51;102706.78;16124173;19;129498;-57
2023/10/04 09:03:34;;;;;;;4.35;1.30;;;;;;;22.09;42.51;102700.69;16120487;19;129264;-57
2023/10/04 09:08:57;;;;;;;4.57;1.23;;;;;;;21.92;43.22;102696.75;16117420;19;131319;-56
2023/10/04 09:14:20;;;;;;;6.03;1.80;;;;;;;21.78;43.43;102704.34;16117160;19;130474;-56
2023/10/04 09:19:45;;;;;;;4.35;1.40;;;;;;;21.68;43.62;102696.50;16118639;19;129447;-56
2023/10/04 09:25:08;;;;;;;7.85;1.90;;;;;;;21.59;44.10;102697.84;16118543;19;129827;-54
2023/10/04 09:30:34;;;;;;;5.88;2.00;;;;;;;21.48;44.44;102691.88;16118543;19;129543;-57
2023/10/04 09:35:56;;;;;;;5.27;1.60;;;;;;;21.40;44.57;102703.28;16117806;19;129278;-57
2023/10/04 09:41:19;;;;;;;7.97;1.58;;;;;;;21.36;45.07;102699.22;16117834;19;129641;-55
2023/10/04 09:46:54;;;;;;;5.40;1.73;;;;;;;21.32;45.06;102696.03;16116498;19;129849;-57
2023/10/04 09:52:16;;;;;;;6.67;1.83;;;;;;;21.27;45.00;102697.78;16116597;19;130833;-58
2023/10/04 09:57:42;;;;;;;4.72;1.70;;;;;;;21.22;45.07;102685.38;16117368;19;131385;-58
2023/10/04 10:03:08;;;;;;;5.53;1.55;;;;;;;21.18;45.38;102692.44;16116980;19;130922;-57
2023/10/04 10:08:38;;;;;;;5.20;1.75;;;;;;;21.15;44.96;102695.69;16114137;19;130238;-58
2023/10/04 10:14:07;;;;;;;5.93;1.83;;;;;;;21.12;45.53;102687.78;16116094;19;129686;-58
2023/10/04 10:19:30;;;;;;;4.10;2.00;;;;;;;21.11;45.26;102699.13;16114508;19;130923;-57
2023/10/04 10:24:59;;;;;;;6.72;2.10;;;;;;;21.10;45.69;102703.84;16114422;19;129001;-57
2023/10/04 10:30:23;;;;;;;7.57;2.00;;;;;;;21.07;45.54;102695.91;16116185;19;131806;-58
2023/10/04 10:35:59;;;;;;;5.93;1.88;;;;;;;21.06;45.72;102689.50;16116289;19;129555;-57
2023/10/04 10:41:34;;;;;;;8.10;2.45;;;;;;;21.04;45.87;102693.59;16112182;19;130792;-57
2023/10/04 10:47:00;;;;;;;7.90;2.05;;;;;;;21.00;45.93;102692.31;16113530;19;129600;-57
2023/10/04 10:52:38;;;;;;;5.38;2.28;;;;;;;21.01;46.19;102685.69;16112886;19;129616;-58
2023/10/04 10:58:01;;;;;;;8.18;1.98;;;;;;;20.99;46.06;102685.03;16112464;19;131584;-58
2023/10/04 11:03:23;;;;;;;4.88;1.95;;;;;;;20.98;45.76;102686.09;16107389;19;130370;-58
2023/10/04 11:08:47;;;;;;;9.63;2.50;;;;;;;20.98;46.09;102684.19;16108905;19;129833;-57
2023/10/04 11:14:09;;;;;;;4.55;1.90;;;;;;;20.96;45.94;102688.25;16109260;19;131748;-56
2023/10/04 11:19:32;;;;;;;7.57;2.08;;;;;;;20.96;45.80;102669.66;16107989;19;129956;-58
2023/10/04 11:24:55;;;;;;;5.28;2.20;;;;;;;20.95;45.89;102672.63;16108960;19;130198;-58
2023/10/04 11:30:18;;;;;;;9.40;2.53;;;;;;;20.94;46.05;102666.22;16109514;19;130670;-58
2023/10/04 11:35:43;;;;;;;5.15;2.10;;;;;;;20.94;45.88;102657.00;16110081;19;129773;-57
2023/10/04 11:41:05;;;;;;;6.40;2.10;;;;;;;20.92;46.00;102648.91;16122431;19;131588;-57
2023/10/04 11:46:28;;;;;;;6.63;1.92;;;;;;;20.91;46.00;102647.19;16121693;19;129394;-58
2023/10/04 11:51:50;;;;;;;4.38;1.83;;;;;;;20.89;45.84;102636.28;16123310;19;129584;-56
2023/10/04 11:57:24;;;;;;;6.97;2.30;;;;;;;20.90;46.19;102629.66;16127881;19;129574;-58
2023/10/04 12:02:46;;;;;;;7.68;2.22;;;;;;;20.88;45.87;102629.00;16124546;19;130339;-57
2023/10/04 12:08:09;;;;;;;6.07;2.17;;;;;;;20.87;46.40;102627.31;16121263;19;131527;-58
2023/10/04 12:13:31;;;;;;;5.00;1.85;;;;;;;20.85;46.27;102628.59;16119731;19;129546;-58
2023/10/04 12:18:53;;;;;;;5.82;1.85;;;;;;;20.84;46.44;102619.38;16122586;19;129618;-58
2023/10/04 12:24:15;;;;;;;6.50;1.90;;;;;;;20.81;46.60;102611.47;16121104;19;130270;-58
2023/10/04 12:29:38;;;;;;;7.55;2.20;;;;;;;20.79;46.61;102618.34;16122657;19;129749;-60
2023/10/04 12:35:00;;;;;;;5.53;2.08;;;;;;;20.77;46.45;102623.25;16117769;19;129466;-58
2023/10/04 12:40:25;;;;;;;5.72;2.20;;;;;;;20.77;46.61;102626.06;16123756;19;129355;-58
2023/10/04 12:45:47;;;;;;;5.95;2.30;;;;;;;20.73;46.58;102623.69;16122796;19;130641;-58
2023/10/04 12:51:09;;;;;;;5.30;2.00;;;;;;;20.73;46.40;102623.69;16120746;19;133665;-59
2023/10/04 12:56:31;;;;;;;5.40;1.80;;;;;;;20.72;46.84;102624.78;16121169;19;129388;-58
2023/10/04 13:01:56;;;;;;;4.03;1.80;;;;;;;20.72;46.64;102630.34;16121649;19;130091;-57
2023/10/04 13:07:19;;;;;;;6.53;2.08;;;;;;;20.70;46.86;102623.25;16119269;19;130609;-57
2023/10/04 13:12:41;;;;;;;5.13;2.10;;;;;;;20.70;46.76;102618.56;16119800;19;129833;-57
2023/10/04 13:18:06;;;;;;;6.50;2.30;;;;;;;20.69;46.92;102608.50;16116503;19;130936;-58
2023/10/04 13:23:29;;;;;;;3.90;1.97;;;;;;;20.71;46.77;102599.94;16117160;19;129256;-57
2023/10/04 13:28:51;;;;;;;4.65;1.90;;;;;;;20.70;46.82;102596.31;16116538;19;129432;-58
2023/10/04 13:34:14;;;;;;;3.35;1.80;;;;;;;20.70;47.03;102589.88;16111350;19;129720;-58
2023/10/04 13:39:37;;;;;;;4.22;1.73;;;;;;;20.68;47.08;102581.78;16116995;19;130867;-58
2023/10/04 13:44:59;;;;;;;3.85;1.65;;;;;;;20.69;46.86;102574.28;16114662;19;131056;-58
2023/10/04 13:50:26;;;;;;;5.03;2.03;;;;;;;20.68;46.89;102570.66;16114461;19;129700;-59
2023/10/04 13:55:49;;;;;;;5.35;2.03;;;;;;;20.68;47.11;102567.88;16116669;19;130596;-57
2023/10/04 14:01:12;;;;;;;4.95;2.20;;;;;;;20.68;46.76;102572.56;16113327;19;130941;-57
2023/10/04 14:06:35;;;;;;;6.68;1.80;;;;;;;20.68;46.85;102570.66;16117813;19;130581;-55
2023/10/04 14:11:57;;;;;;;7.30;1.83;;;;;;;20.69;46.51;102563.16;16115212;19;130062;-57
2023/10/04 14:17:20;;;;;;;6.32;1.70;;;;;;;20.69;46.63;102540.91;16115083;19;131136;-57
2023/10/04 14:22:46;;;;;;;5.68;1.95;;;;;;;20.70;46.22;102542.59;16109918;19;131237;-58
2023/10/04 14:28:09;;;;;;;7.93;1.80;;;;;;;20.69;46.48;102529.78;16113552;19;130950;-57
2023/10/04 14:33:31;;;;;;;6.55;2.20;;;;;;;20.68;46.57;102530.84;16111830;19;130176;-57
2023/10/04 14:38:53;;;;;;;4.28;1.70;;;;;;;20.67;46.58;102529.16;16114059;19;129764;-58
2023/10/04 14:44:15;;;;;;;7.18;2.30;;;;;;;20.66;46.62;102524.69;16113563;19;129642;-58
2023/10/04 14:49:42;;;;;;;5.10;1.92;;;;;;;20.66;46.42;102519.13;16112195;19;131587;-57
2023/10/04 14:55:08;;;;;;;6.05;2.08;;;;;;;20.67;46.71;102515.25;16113753;19;131613;-58
2023/10/04 15:00:30;;;;;;;6.63;2.00;;;;;;;20.67;46.44;102515.25;16112312;19;130432;-58
2023/10/04 15:05:52;;;;;;;5.88;2.00;;;;;;;20.66;46.65;102505.22;16109673;19;129752;-57
2023/10/04 15:11:14;;;;;;;4.75;1.75;;;;;;;20.66;46.49;102508.00;16119759;19;134550;-57
2023/10/04 15:16:36;;;;;;;5.38;1.98;;;;;;;20.65;46.33;102500.72;16125731;19;131486;-58
2023/10/04 15:21:58;;;;;;;4.82;1.77;;;;;;;20.63;46.54;102509.28;16124858;19;129554;-58
2023/10/04 15:27:20;;;;;;;4.13;1.85;;;;;;;20.62;46.45;102496.44;16128921;19;129504;-57
2023/10/04 15:32:44;;;;;;;4.13;1.70;;;;;;;20.62;46.40;102478.91;16120460;19;129324;-57
2023/10/04 15:38:06;;;;;;;3.95;1.80;;;;;;;20.60;46.61;102476.38;16119226;19;129862;-55
2023/10/04 15:43:29;;;;;;;5.82;1.67;;;;;;;20.60;46.48;102481.94;16123078;19;129449;-58
2023/10/04 15:48:52;;;;;;;4.47;1.73;;;;;;;20.58;46.44;102479.34;16125430;19;130278;-57
2023/10/04 15:54:14;;;;;;;3.63;1.40;;;;;;;20.57;46.88;102465.69;16119616;19;130890;-54
2023/10/04 15:59:37;;;;;;;3.15;1.40;;;;;;;20.55;46.81;102467.81;16117735;19;129716;-57
2023/10/04 16:04:59;;;;;;;4.88;1.58;;;;;;;20.55;46.94;102463.13;16116730;19;130626;-56
2023/10/04 16:10:25;;;;;;;4.10;2.15;;;;;;;20.53;46.99;102465.28;16120415;19;129376;-58
2023/10/04 16:15:48;;;;;;;3.85;1.80;;;;;;;20.53;46.76;102465.28;16120333;19;131794;-58
2023/10/04 16:21:10;;;;;;;5.15;1.83;;;;;;;20.52;46.78;102469.13;16121962;19;130633;-58
2023/10/04 16:26:34;;;;;;;4.45;1.80;;;;;;;20.51;46.68;102477.69;16118755;19;129625;-58
2023/10/04 16:31:56;;;;;;;4.75;1.73;;;;;;;20.51;46.80;102480.47;16124900;19;131042;-58
2023/10/04 16:37:19;;;;;;;5.43;1.92;;;;;;;20.50;47.08;102482.41;16119628;19;130544;-58
2023/10/04 16:42:42;;;;;;;3.15;1.52;;;;;;;20.49;47.08;102480.69;16118484;19;129329;-58
2023/10/04 16:48:06;;;;;;;6.65;2.35;;;;;;;20.49;47.23;102483.47;16117638;19;130155;-58
2023/10/04 16:53:28;;;;;;;5.35;1.63;;;;;;;20.47;47.25;102477.28;16120858;19;129727;-58
2023/10/04 16:58:50;;;;;;;7.65;2.20;;;;;;;20.47;46.83;102482.00;16118698;19;129353;-58
2023/10/04 17:04:15;;;;;;;5.17;2.03;;;;;;;20.45;47.15;102485.84;16116112;19;129436;-58
2023/10/04 17:09:37;;;;;;;3.30;1.58;;;;;;;20.45;47.28;102473.84;16115865;19;130802;-58
2023/10/04 17:14:59;;;;;;;5.20;1.75;;;;;;;20.42;47.34;102480.72;16114579;19;130400;-58
2023/10/04 17:20:21;;;;;;;5.78;2.20;;;;;;;20.43;47.28;102493.53;16113129;19;129756;-58
2023/10/04 17:25:43;;;;;;;3.55;1.60;;;;;;;20.42;47.56;102483.50;16116106;19;130825;-59
2023/10/04 17:31:06;;;;;;;6.53;2.55;;;;;;;20.41;47.65;102489.28;16115273;19;131396;-57
2023/10/04 17:36:28;;;;;;;7.78;3.25;;;;;;;20.43;47.62;102503.81;16110483;19;130312;-56
2023/10/04 17:41:50;;;;;;;14.50;3.22;;;;;;;20.42;47.36;102502.97;16117377;19;129745;-56
2023/10/04 17:47:12;;;;;;;7.28;3.13;;;;;;;20.42;47.63;102508.50;16115442;19;129468;-56
2023/10/04 17:52:34;;;;;;;9.35;3.05;;;;;;;20.41;47.31;102506.81;16115175;19;131693;-57
2023/10/04 17:57:56;;;;;;;10.50;3.20;;;;;;;20.43;47.67;102514.94;16111936;19;129554;-56
2023/10/04 18:03:18;;;;;;;7.03;3.08;;;;;;;20.43;47.51;102506.59;16111571;19;131273;-57
2023/10/04 18:08:40;;;;;;;7.75;3.00;;;;;;;20.43;47.62;102493.53;16113305;19;130808;-58
2023/10/04 18:14:05;;;;;;;7.10;3.17;;;;;;;20.42;47.63;102504.91;16111705;19;131032;-58
2023/10/04 18:19:29;;;;;;;10.03;3.00;;;;;;;20.42;47.59;102493.78;16113220;19;129492;-58
2023/10/04 18:24:51;;;;;;;9.02;2.70;;;;;;;20.41;47.46;102490.13;16114277;19;130307;-56
2023/10/04 18:30:14;;;;;;;7.40;3.00;;;;;;;20.40;47.48;102493.13;16113672;19;130273;-57
2023/10/04 18:35:36;;;;;;;5.50;2.58;;;;;;;20.41;47.82;102492.06;16110174;19;129528;-56
2023/10/04 18:40:58;;;;;;;8.68;3.00;;;;;;;20.39;47.47;102497.81;16110076;19;129618;-58
2023/10/04 18:46:20;;;;;;;9.10;2.90;;;;;;;20.40;47.93;102499.53;16122375;19;131360;-56
2023/10/04 18:51:42;;;;;;;8.00;2.90;;;;;;;20.38;47.70;102501.69;16128821;19;129712;-58
2023/10/04 18:57:05;;;;;;;6.03;2.55;;;;;;;20.39;47.84;102497.00;16129184;19;129901;-56
2023/10/04 19:02:27;;;;;;;9.15;3.03;;;;;;;20.39;47.55;102497.00;16124374;19;129662;-57
2023/10/04 19:07:51;;;;;;;5.82;2.65;;;;;;;20.38;47.70;102500.84;16125358;19;129946;-58
2023/10/04 19:13:13;;;;;;;6.30;2.72;;;;;;;20.38;47.92;102498.91;16124502;19;129834;-58
2023/10/04 19:18:35;;;;;;;6.30;2.90;;;;;;;20.37;47.78;102504.69;16118915;19;131560;-59
2023/10/04 19:24:00;;;;;;;13.75;3.22;;;;;;;20.39;48.41;102499.78;16124930;19;129736;-58
2023/10/04 19:29:22;;;;;;;15.43;2.90;;;;;;;20.42;48.59;102497.41;16120412;19;130269;-58
2023/10/04 19:34:44;;;;;;;16.40;2.97;;;;;;;20.45;48.58;102491.41;16124593;19;131100;-56
2023/10/04 19:40:07;;;;;;;10.32;2.33;;;;;;;20.48;48.55;102490.09;16125403;19;129750;-58
2023/10/04 19:45:31;;;;;;;11.98;2.50;;;;;;;20.51;48.40;102498.00;16121095;19;130872;-58
2023/10/04 19:50:54;;;;;;;13.30;2.80;;;;;;;20.53;48.81;102492.22;16122746;19;129477;-58
2023/10/04 19:56:16;;;;;;;10.30;2.33;;;;;;;20.54;48.55;102478.09;16120099;19;130968;-58
2023/10/04 20:01:38;;;;;;;12.38;2.65;;;;;;;20.53;48.45;102476.41;16119379;19;129797;-59
2023/10/04 20:07:03;;;;;;;13.07;2.30;;;;;;;20.55;48.58;102467.81;16123124;19;129621;-58
2023/10/04 20:12:26;;;;;;;17.27;2.22;;;;;;;20.55;48.65;102468.69;16121851;19;130457;-59
2023/10/04 20:17:50;;;;;;;9.77;2.50;;;;;;;20.57;48.72;102469.31;16119540;19;130077;-58
2023/10/04 20:23:12;;;;;;;9.63;2.42;;;;;;;20.59;48.90;102472.72;16120508;19;129395;-58
2023/10/04 20:28:34;;;;;;;16.45;2.85;;;;;;;20.61;48.87;102480.84;16120150;19;130668;-58
2023/10/04 20:33:58;;;;;;;19.17;2.40;;;;;;;20.58;48.50;102479.34;16121368;19;130396;-58
2023/10/04 20:39:21;;;;;;;18.33;2.58;;;;;;;20.57;48.54;102482.38;16118125;19;130790;-58
2023/10/04 20:44:43;;;;;;;6.00;2.10;;;;;;;20.54;48.95;102483.66;16120925;19;130796;-58
2023/10/04 20:50:06;;;;;;;7.93;2.25;;;;;;;20.53;48.79;102492.22;16122360;19;130094;-56
2023/10/04 20:55:28;;;;;;;11.30;2.45;;;;;;;20.51;48.66;102483.22;16139022;19;131003;-58
2023/10/04 21:00:50;;;;;;;11.15;2.83;;;;;;;20.49;48.96;102491.81;16190873;19;128353;-58
2023/10/04 21:06:12;;;;;;;16.20;2.30;;;;;;;20.49;48.89;102497.38;16193297;19;129081;-58
2023/10/04 21:11:34;;;;;;;5.35;2.22;;;;;;;20.47;48.65;102493.94;16189548;19;129081;-57
2023/10/04 21:16:57;;;;;;;10.75;2.75;;;;;;;20.46;48.92;102483.91;16186794;19;130391;-58
2023/10/04 21:22:21;;;;;;;7.97;2.13;;;;;;;20.44;48.50;102470.25;16192242;19;129415;-58
2023/10/04 21:27:43;;;;;;;10.10;1.92;;;;;;;20.43;48.83;102470.47;16191969;19;128972;-58
2023/10/04 21:33:07;;;;;;;8.40;1.88;;;;;;;20.41;48.86;102467.88;16177763;19;129458;-55
2023/10/04 21:38:29;;;;;;;7.32;1.95;;;;;;;20.42;48.64;102468.75;16175837;19;132901;-59
2023/10/04 21:44:00;;;;;;;8.40;2.20;;;;;;;20.39;48.90;102453.34;16158016;19;129256;-59
2023/10/04 21:49:22;;;;;;;5.00;1.90;;;;;;;20.38;48.74;102445.25;16165068;19;132233;-58
2023/10/04 21:54:45;;;;;;;8.65;1.83;;;;;;;20.37;48.87;102444.38;16175320;19;129468;-55
2023/10/04 22:00:30;;;;;;;5.70;1.65;;;;;;;20.37;48.91;102432.44;16136523;19;129204;-57
2023/10/04 22:05:55;;;;;;;8.02;2.03;;;;;;;20.35;48.88;102434.56;16151451;19;129297;-57
2023/10/04 22:11:17;;;;;;;6.13;1.73;;;;;;;20.36;48.63;102419.59;16144150;19;129809;-59
2023/10/04 22:16:41;;;;;;;5.38;1.58;;;;;;;20.35;48.58;102406.78;16131350;19;129621;-58
2023/10/04 22:22:03;;;;;;;6.95;1.70;;;;;;;20.33;48.83;102400.56;16129598;19;129293;-59
2023/10/04 22:27:25;;;;;;;4.40;1.50;;;;;;;20.31;48.84;102400.81;16128052;19;129486;-59
2023/10/04 22:32:51;;;;;;;7.07;2.00;;;;;;;20.31;48.80;102384.13;16118140;19;131353;-58
2023/10/04 22:38:15;;;;;;;4.85;1.70;;;;;;;20.31;48.43;102391.63;16117224;19;129258;-58
2023/10/04 22:43:37;;;;;;;6.88;1.83;;;;;;;20.28;48.33;102371.53;16114732;19;130137;-58
2023/10/04 22:48:59;;;;;;;4.88;1.48;;;;;;;20.27;48.33;102367.06;16118113;19;130402;-59
2023/10/04 22:54:21;;;;;;;6.53;1.88;;;;;;;20.26;48.35;102359.78;16115393;19;130789;-59
2023/10/04 22:59:43;;;;;;;4.20;1.65;;;;;;;20.26;48.56;102359.78;16113665;19;131361;-58
2023/10/04 23:05:06;;;;;;;3.05;1.30;;;;;;;20.26;48.27;102359.78;16112613;19;130132;-58
2023/10/04 23:10:32;;;;;;;5.25;1.55;;;;;;;20.24;48.70;102356.38;16110893;19;130404;-58
2023/10/04 23:15:59;;;;;;;5.88;1.60;;;;;;;20.25;48.48;102352.53;16114728;19;134055;-59
2023/10/04 23:21:23;;;;;;;2.85;1.20;;;;;;;20.24;48.43;102341.66;16110789;19;130855;-58
2023/10/04 23:26:47;;;;;;;3.72;1.27;;;;;;;20.22;48.36;102333.50;16112702;19;129435;-57
2023/10/04 23:32:09;;;;;;;3.88;1.63;;;;;;;20.23;48.34;102320.50;16117561;19;134247;-57
2023/10/04 23:37:34;;;;;;;1.98;0.95;;;;;;;20.22;48.12;102319.63;16124903;19;130737;-58
2023/10/04 23:42:56;;;;;;;3.17;1.20;;;;;;;20.21;48.35;102333.75;16123314;19;129163;-57
2023/10/04 23:48:24;;;;;;;4.50;1.20;;;;;;;20.21;48.54;102322.63;16125916;19;129765;-57
2023/10/04 23:59:08;;;;;;;3.10;1.00;;;;;;;20.20;48.20;102312.59;16123615;19;131148;-59
